Terminal Aerodrome Forecast
Issued by NWS Sioux Falls, SD

Home | Current Version | Previous Version | Graphics & Text | Print | Product List | Glossary Off
Versions: 1 2 3 4 5 6 7 8 9 10 11 12 13 14 15 16 17 18 19 20 21 22 23

000
FTUS43 KFSD 012320
TAFSUX
TAF
KSUX 012320Z 0200/0224 22015G26KT 5SM -TSRA SCT040CB BKN070
      TEMPO 0200/0202 2SM TSRA BR OVC035CB
     FM020200 26014KT 6SM -SHRA OVC040
     FM020300 33012G18KT P6SM SCT050 BKN100
     FM020500 32008KT P6SM SCT250
     FM021600 30017G25KT P6SM SCT200=

USA.gov is the U.S. government's official web portal to all federal, state and local government web resources and services.